FW6868 Weather Reports


time (UTC)temp
C
wind
direction
speed
KPH
gust
KPH
rain 1hr
cm
rain 24hr
cm
rain mn
cm
humidity
%
barometer
mb
20220629024559 20 309 0.0 4.8 0.00 0.00 0.00 86 1015.4
20220629023108 21 0 0.0 6.4 0.00 0.00 0.00 85 1015.4
20220629021610 21 0 0.0 3.2 0.00 0.00 0.00 84 1015.3
20220629020108 21 0 0.0 8.0 0.00 0.00 0.00 84 1015.6
20220629014614 21 348 1.6 4.8 0.00 0.00 0.00 84 1015.6
20220629013120 21 315 3.2 8.0 0.00 0.00 0.00 83 1015.8
20220629011607 21 336 3.2 14.5 0.00 0.00 0.00 83 1015.9
20220629010106 21 334 4.8 14.5 0.00 0.00 0.00 83 1016.0
20220629004602 21 281 3.2 9.7 0.00 0.00 0.00 82 1016.1
20220629003107 22 335 4.8 12.9 0.00 0.00 0.00 82 1016.2
20220629001610 22 289 6.4 16.1 0.00 0.00 0.00 82 1016.3
20220629000114 22 318 11.3 20.9 0.00 0.00 0.00 82 1016.1
20220628234609 22 331 9.7 22.5 0.00 0.00 0.00 82 1016.2
20220628233102 22 336 14.5 24.1 0.00 0.00 0.00 82 1016.0
20220628231610 22 342 4.8 9.7 0.00 0.00 0.00 80 1015.9
20220628230103 23 317 3.2 12.9 0.00 0.00 0.00 79 1015.9
20220628224647 23 347 8.0 14.5 0.00 0.00 0.00 79 1015.8
20220628223103 22 321 0.0 8.0 0.00 0.00 0.00 78 1015.8
20220628221612 23 317 0.0 6.4 0.00 0.00 0.00 78 1015.6
20220628220110 23 343 6.4 14.5 0.00 0.00 0.00 79 1015.6
20220628214609 24 350 9.7 20.9 0.00 0.00 0.00 76 1015.6
20220628213112 25 329 3.2 12.9 0.00 0.00 0.00 61 1015.6
20220628211605 25 167 1.6 9.7 0.00 0.00 0.00 51 1015.3
20220628210102 25 206 6.4 11.3 0.00 0.00 0.00 53 1015.1
20220628204608 25 175 3.2 8.0 0.00 0.00 0.00 56 1015.0
20220628203104 25 143 6.4 11.3 0.00 0.00 0.00 63 1014.8
20220628201617 26 158 4.8 12.9 0.00 0.00 0.00 52 1014.5
20220628200107 26 164 6.4 9.7 0.00 0.00 0.00 52 1014.3
20220628194604 26 173 6.4 16.1 0.00 0.00 0.00 51 1014.3
20220628193106 26 169 9.7 16.1 0.00 0.00 0.00 51 1014.1
20220628191607 26 185 8.0 16.1 0.00 0.00 0.00 52 1013.9
20220628190107 26 147 11.3 20.9 0.00 0.00 0.00 57 1013.7
20220628184605 26 133 14.5 22.5 0.00 0.00 0.00 70 1013.9
20220628183110 26 115 16.1 25.7 0.00 0.00 0.00 69 1013.8
20220628181608 25 125 17.7 27.4 0.00 0.00 0.00 73 1013.8
20220628180114 25 113 19.3 24.1 0.00 0.00 0.00 75 1013.7
20220628174611 25 117 19.3 27.4 0.00 0.00 0.00 75 1013.8
20220628173109 25 117 20.9 29.0 0.00 0.00 0.00 73 1014.0
20220628171608 26 140 16.1 24.1 0.00 0.00 0.00 73 1014.1
20220628170114 25 153 20.9 30.6 0.00 0.00 0.00 75 1014.1
20220628164607 25 113 24.1 30.6 0.00 0.00 0.00 75 1014.3
20220628163059 25 107 24.1 29.0 0.00 0.00 0.00 73 1014.4
20220628161601 25 104 24.1 29.0 0.00 0.00 0.00 75 1014.7
20220628160101 25 112 24.1 32.2 0.00 0.00 0.00 75 1015.1
20220628154605 25 111 25.7 30.6 0.00 0.00 0.00 76 1015.1
20220628153104 23 105 24.1 30.6 0.00 0.00 0.00 80 1015.5
20220628151607 23 104 27.4 35.4 0.00 0.00 0.00 82 1015.7
20220628150105 22 99 32.2 38.6 0.00 0.00 0.00 83 1016.1
20220628144557 22 105 32.2 40.2 0.00 0.00 0.00 82 1016.1
20220628143057 22 98 29.0 37.0 0.00 0.00 0.00 81 1016.4
20220628141608 22 103 25.7 33.8 0.00 0.00 0.00 81 1016.6
20220628140110 22 96 24.1 30.6 0.00 0.00 0.00 81 1016.8
20220628134602 22 109 24.1 29.0 0.00 0.00 0.00 80 1017.1
20220628133057 22 102 24.1 29.0 0.00 0.00 0.00 78 1017.0
20220628131600 22 106 20.9 25.7 0.00 0.00 0.00 79 1017.2
20220628130114 22 94 19.3 24.1 0.00 0.00 0.00 79 1017.2
20220628124555 22 93 17.7 20.9 0.00 0.00 0.00 79 1017.4
20220628123104 22 72 16.1 19.3 0.00 0.00 0.00 78 1017.5
20220628121558 22 99 16.1 20.9 0.00 0.00 0.00 77 1017.8
20220628120107 22 78 16.1 20.9 0.00 0.00 0.00 78 1018.1
20220628114603 22 110 16.1 22.5 0.00 0.00 0.00 77 1018.3
20220628113107 22 105 17.7 24.1 0.00 0.00 0.00 76 1018.4
20220628111600 22 90 16.1 20.9 0.00 0.00 0.00 77 1018.6
20220628110102 22 94 14.5 20.9 0.00 0.00 0.00 76 1018.5
20220628104602 22 96 16.1 20.9 0.00 0.00 0.00 76 1018.5
20220628103105 22 76 14.5 19.3 0.00 0.00 0.00 76 1018.5
20220628101607 22 67 14.5 17.7 0.00 0.00 0.00 76 1018.7
20220628100109 22 82 12.9 17.7 0.00 0.00 0.00 76 1018.7
20220628094609 22 64 11.3 16.1 0.00 0.00 0.00 76 1018.7
20220628093107 22 78 11.3 17.7 0.00 0.00 0.00 75 1018.8
20220628091607 22 76 11.3 16.1 0.00 0.00 0.00 75 1018.8
20220628090103 22 81 8.0 12.9 0.00 0.00 0.00 76 1019.0
20220628084606 22 68 4.8 9.7 0.00 0.00 0.00 76 1019.0
20220628083106 22 62 4.8 9.7 0.00 0.00 0.00 78 1018.8
20220628081608 22 61 4.8 8.0 0.00 0.00 0.00 78 1019.0
20220628080103 21 54 4.8 8.0 0.00 0.00 0.00 79 1018.9
20220628074605 21 46 4.8 8.0 0.00 0.00 0.00 81 1018.9
20220628073057 21 44 4.8 6.4 0.00 0.00 0.00 81 1018.9
20220628071601 21 31 3.2 6.4 0.00 0.00 0.00 82 1018.9
20220628070122 20 31 0.0 1.6 0.00 0.00 0.00 83 1018.8
20220628064558 20 0 0.0 3.2 0.00 0.00 0.00 84 1019.0
20220628063108 20 229 1.6 4.8 0.00 0.00 0.00 85 1018.9
20220628061608 19 211 0.0 6.4 0.00 0.00 0.00 87 1018.9
20220628060107 18 0 0.0 8.0 0.00 0.00 0.00 86 1018.9
20220628054610 18 195 4.8 11.3 0.00 0.00 0.00 87 1018.7
20220628053058 17 197 3.2 9.7 0.00 0.00 0.00 87 1018.4
20220628051607 17 197 4.8 8.0 0.00 0.00 0.00 87 1018.5
20220628050106 17 211 6.4 9.7 0.00 0.00 0.00 87 1018.5
20220628044616 17 219 8.0 11.3 0.00 0.00 0.00 87 1018.3
20220628043100 17 215 8.0 12.9 0.00 0.00 0.00 87 1018.4
20220628041558 17 192 6.4 11.3 0.00 0.00 0.00 88 1018.3
20220628040059 17 211 6.4 9.7 0.00 0.00 0.00 88 1018.3
20220628034612 17 205 6.4 14.5 0.00 0.00 0.00 88 1018.3
20220628033100 17 200 9.7 12.9 0.00 0.00 0.00 88 1018.3
20220628031606 17 217 3.2 8.0 0.00 0.00 0.00 88 1018.3
20220628030103 17 0 0.0 0.0 0.00 0.00 0.00 87 1018.3